APL Indonesia — V2EC7 — position and weather

sailwx.info

Track history (hours):
 
Tides and Currents Weather Stations Pressure Air Temp Water Temp Dewpoint Dewpoint Depression Visibility Wind Speed Wind Dir Waves Ship Positions

APL Indonesia

Last reported at 2015-Mar-03 00:04 UTC. Time now 2015-Mar-03 20:21 UTC.
Position N 25°44' W 079°44'.

Length 261 m; draft 8.9 m.

Type: Ship (hazmat cat D). MMSI: 305386000.

Date/timePositionNaut miles runAvg speedWind from/ knotsBaromVisibWave heightAir tempDewpointWater temp
2015-Mar-03 00:04N 25°44' W 079°44'812.9
2015-Mar-02 23:25N 25°45' W 079°53'1012.0
2015-Mar-02 22:33N 25°46' W 080°05'4 2.9
2015-Mar-02 21:11N 25°46' W 080°09'0 0.0
2015-Mar-02 19:10N 25°46' W 080°09'0 0.0
2015-Mar-02 18:11N 25°46' W 080°09'0 0.0
2015-Mar-02 16:29N 25°46' W 080°09'0 0.0
2015-Mar-02 15:14N 25°46' W 080°09'0 0.0
2015-Mar-02 14:32N 25°46' W 080°09'0 0.0
2015-Mar-02 13:32N 25°46' W 080°09'0 0.0
2015-Mar-02 12:31N 25°46' W 080°09'0 0.0
2015-Mar-02 11:31N 25°46' W 080°09'0 0.0
2015-Mar-02 10:33N 25°46' W 080°09'8 7.5
2015-Mar-02 09:33N 25°48' W 080°01'1110.6
2015-Mar-02 08:33N 25°57' W 079°55'1111.2
2015-Mar-02 07:33N 26°08' W 079°52'1211.5
2015-Mar-02 06:33N 26°19' W 079°52'1111.0
2015-Mar-02 05:33N 26°30' W 079°52'1111.3
2015-Mar-02 04:33N 26°42' W 079°52'1111.4
2015-Mar-02 03:33N 26°53' W 079°52'1111.5
2015-Mar-02 02:33N 27°04' W 079°52'  
2015-Feb-26 08:15N 38°34' W 074°50'7 9.8
2015-Feb-26 07:31N 38°40' W 074°56'19 9.7
2015-Feb-26 05:33N 38°57' W 075°07'1515.4
2015-Feb-26 04:33N 39°11' W 075°16'2017.2
2015-Feb-26 03:24N 39°26' W 075°32'1113.1
2015-Feb-26 02:34N 39°37' W 075°35'1312.5
2015-Feb-26 01:33N 39°48' W 075°26'1010.2
2015-Feb-26 00:33N 39°52' W 075°14'5 5.1
2015-Feb-25 23:33N 39°54' W 075°08'0 0.0
2015-Feb-25 22:31N 39°54' W 075°08'0 0.0
2015-Feb-25 21:31N 39°54' W 075°08'0 0.0
2015-Feb-25 20:31N 39°54' W 075°08'0 0.0
2015-Feb-25 19:31N 39°54' W 075°08'0 0.0
2015-Feb-25 18:31N 39°54' W 075°08'0 0.0
2015-Feb-25 17:31N 39°54' W 075°08'0 0.0
2015-Feb-25 16:31N 39°54' W 075°08'0 0.0
2015-Feb-25 15:31N 39°54' W 075°08'0 0.0
2015-Feb-25 14:31N 39°54' W 075°08'0 0.0
2015-Feb-25 13:32N 39°54' W 075°08'2 2.2
2015-Feb-25 12:33N 39°53' W 075°11'6 6.3
2015-Feb-25 11:33N 39°51' W 075°18'9 8.9
2015-Feb-25 10:34N 39°46' W 075°28'1211.8
2015-Feb-25 09:33N 39°35' W 075°34'1515.2
2015-Feb-25 08:34N 39°21' W 075°26'1717.3
2015-Feb-25 07:33N 39°07' W 075°13'1716.5
2015-Feb-25 06:33N 38°52' W 075°04'7 6.7
2015-Feb-25 05:33N 38°47' W 074°58'7 7.3
2015-Feb-25 04:33N 38°48' W 074°49'8 8.5
2015-Feb-25 03:33N 38°49' W 074°38'51 3.3
2015-Feb-24 12:11N 39°26' W 073°55'911.4
2015-Feb-24 11:23N 39°35' W 073°52'1012.0
2015-Feb-24 10:32N 39°46' W 073°52'1212.1
2015-Feb-24 09:32N 39°58' W 073°51'30 9.9
2015-Feb-24 06:32N 40°27' W 073°51'1010.3
2015-Feb-24 05:34N 40°33' W 074°02'7 7.2
2015-Feb-24 04:33N 40°39' W 074°08'2 1.9
2015-Feb-24 03:32N 40°41' W 074°08'0 0.0
2015-Feb-24 02:32N 40°41' W 074°08'0 0.0
2015-Feb-24 01:32N 40°41' W 074°08'0 0.0
2015-Feb-24 00:32N 40°41' W 074°08'0 0.0
2015-Feb-23 23:26N 40°41' W 074°08'0 0.0
2015-Feb-23 22:32N 40°41' W 074°08'0 0.0
2015-Feb-23 21:23N 40°41' W 074°08'0 0.0
2015-Feb-23 20:32N 40°41' W 074°08'0 0.0
2015-Feb-23 19:32N 40°41' W 074°08'0 0.0
2015-Feb-23 18:26N 40°41' W 074°08'0 0.0
2015-Feb-23 17:32N 40°41' W 074°08'0 0.0
2015-Feb-23 16:26N 40°41' W 074°08'0 0.0
2015-Feb-23 15:26N 40°41' W 074°08'0 0.0
2015-Feb-23 14:26N 40°41' W 074°08'0 0.0
2015-Feb-23 13:32N 40°41' W 074°08'0 0.0
2015-Feb-23 12:32N 40°41' W 074°08'0 0.3
2015-Feb-23 11:33N 40°40' W 074°08'5 5.3
2015-Feb-23 10:33N 40°37' W 074°03'1110.6
2015-Feb-23 09:33N 40°29' W 073°54'8 7.8
2015-Feb-23 08:32N 40°23' W 073°47'10 8.9
2015-Feb-23 07:25N 40°13' W 073°45'1513.6
2015-Feb-23 06:21N 39°59' W 073°42'1314.6
2015-Feb-23 05:27N 39°46' W 073°40'1614.8
2015-Feb-23 04:22N 39°30' W 073°40'  
Track history (hours):
 
Tides and Currents Weather Stations Pressure Air Temp Water Temp Dewpoint Dewpoint Depression Visibility Wind Speed Wind Dir Waves Ship Positions

APL Indonesia

Last reported at 2015-Mar-03 00:04 UTC. Time now 2015-Mar-03 20:21 UTC.
Position N 25°44' W 079°44'.

Length 261 m; draft 8.9 m.

Type: Ship (hazmat cat D). MMSI: 305386000.

Date/timePositionNaut miles runAvg speedWind from/ knotsBaromVisibWave heightAir tempDewpointWater temp
2015-Mar-03 00:04N 25°44' W 079°44'812.9
2015-Mar-02 23:25N 25°45' W 079°53'1012.0
2015-Mar-02 22:33N 25°46' W 080°05'4 2.9
2015-Mar-02 21:11N 25°46' W 080°09'0 0.0
2015-Mar-02 19:10N 25°46' W 080°09'0 0.0
2015-Mar-02 18:11N 25°46' W 080°09'0 0.0
2015-Mar-02 16:29N 25°46' W 080°09'0 0.0
2015-Mar-02 15:14N 25°46' W 080°09'0 0.0
2015-Mar-02 14:32N 25°46' W 080°09'0 0.0
2015-Mar-02 13:32N 25°46' W 080°09'0 0.0
2015-Mar-02 12:31N 25°46' W 080°09'0 0.0
2015-Mar-02 11:31N 25°46' W 080°09'0 0.0
2015-Mar-02 10:33N 25°46' W 080°09'8 7.5
2015-Mar-02 09:33N 25°48' W 080°01'1110.6
2015-Mar-02 08:33N 25°57' W 079°55'1111.2
2015-Mar-02 07:33N 26°08' W 079°52'1211.5
2015-Mar-02 06:33N 26°19' W 079°52'1111.0
2015-Mar-02 05:33N 26°30' W 079°52'1111.3
2015-Mar-02 04:33N 26°42' W 079°52'1111.4
2015-Mar-02 03:33N 26°53' W 079°52'1111.5
2015-Mar-02 02:33N 27°04' W 079°52'  
2015-Feb-26 08:15N 38°34' W 074°50'7 9.8
2015-Feb-26 07:31N 38°40' W 074°56'19 9.7
2015-Feb-26 05:33N 38°57' W 075°07'1515.4
2015-Feb-26 04:33N 39°11' W 075°16'2017.2
2015-Feb-26 03:24N 39°26' W 075°32'1113.1
2015-Feb-26 02:34N 39°37' W 075°35'1312.5
2015-Feb-26 01:33N 39°48' W 075°26'1010.2
2015-Feb-26 00:33N 39°52' W 075°14'5 5.1
2015-Feb-25 23:33N 39°54' W 075°08'0 0.0
2015-Feb-25 22:31N 39°54' W 075°08'0 0.0
2015-Feb-25 21:31N 39°54' W 075°08'0 0.0
2015-Feb-25 20:31N 39°54' W 075°08'0 0.0
2015-Feb-25 19:31N 39°54' W 075°08'0 0.0
2015-Feb-25 18:31N 39°54' W 075°08'0 0.0
2015-Feb-25 17:31N 39°54' W 075°08'0 0.0
2015-Feb-25 16:31N 39°54' W 075°08'0 0.0
2015-Feb-25 15:31N 39°54' W 075°08'0 0.0
2015-Feb-25 14:31N 39°54' W 075°08'0 0.0
2015-Feb-25 13:32N 39°54' W 075°08'2 2.2
2015-Feb-25 12:33N 39°53' W 075°11'6 6.3
2015-Feb-25 11:33N 39°51' W 075°18'9 8.9
2015-Feb-25 10:34N 39°46' W 075°28'1211.8
2015-Feb-25 09:33N 39°35' W 075°34'1515.2
2015-Feb-25 08:34N 39°21' W 075°26'1717.3
2015-Feb-25 07:33N 39°07' W 075°13'1716.5
2015-Feb-25 06:33N 38°52' W 075°04'7 6.7
2015-Feb-25 05:33N 38°47' W 074°58'7 7.3
2015-Feb-25 04:33N 38°48' W 074°49'8 8.5
2015-Feb-25 03:33N 38°49' W 074°38'51 3.3
2015-Feb-24 12:11N 39°26' W 073°55'911.4
2015-Feb-24 11:23N 39°35' W 073°52'1012.0
2015-Feb-24 10:32N 39°46' W 073°52'1212.1
2015-Feb-24 09:32N 39°58' W 073°51'30 9.9
2015-Feb-24 06:32N 40°27' W 073°51'1010.3
2015-Feb-24 05:34N 40°33' W 074°02'7 7.2
2015-Feb-24 04:33N 40°39' W 074°08'2 1.9
2015-Feb-24 03:32N 40°41' W 074°08'0 0.0
2015-Feb-24 02:32N 40°41' W 074°08'0 0.0
2015-Feb-24 01:32N 40°41' W 074°08'0 0.0
2015-Feb-24 00:32N 40°41' W 074°08'0 0.0
2015-Feb-23 23:26N 40°41' W 074°08'0 0.0
2015-Feb-23 22:32N 40°41' W 074°08'0 0.0
2015-Feb-23 21:23N 40°41' W 074°08'0 0.0
2015-Feb-23 20:32N 40°41' W 074°08'0 0.0
2015-Feb-23 19:32N 40°41' W 074°08'0 0.0
2015-Feb-23 18:26N 40°41' W 074°08'0 0.0
2015-Feb-23 17:32N 40°41' W 074°08'0 0.0
2015-Feb-23 16:26N 40°41' W 074°08'0 0.0
2015-Feb-23 15:26N 40°41' W 074°08'0 0.0
2015-Feb-23 14:26N 40°41' W 074°08'0 0.0
2015-Feb-23 13:32N 40°41' W 074°08'0 0.0
2015-Feb-23 12:32N 40°41' W 074°08'0 0.3
2015-Feb-23 11:33N 40°40' W 074°08'5 5.3
2015-Feb-23 10:33N 40°37' W 074°03'1110.6
2015-Feb-23 09:33N 40°29' W 073°54'8 7.8
2015-Feb-23 08:32N 40°23' W 073°47'10 8.9
2015-Feb-23 07:25N 40°13' W 073°45'1513.6
2015-Feb-23 06:21N 39°59' W 073°42'1314.6
2015-Feb-23 05:27N 39°46' W 073°40'1614.8
2015-Feb-23 04:22N 39°30' W 073°40'  

Dump ship's entire track history